sensor_id;sensor_type;location;lat;lon;timestamp;P1;durP1;ratioP1;P2;durP2;ratioP2
44000;SDS011;29660;42.892;24.710;2022-11-15T00:00:05;22.45;;;16.00;;
44000;SDS011;29660;42.892;24.710;2022-11-15T00:05:26;20.80;;;17.60;;
44000;SDS011;29660;42.892;24.710;2022-11-15T00:10:56;19.25;;;15.27;;
44000;SDS011;29660;42.892;24.710;2022-11-15T00:16:20;23.20;;;16.20;;
44000;SDS011;29660;42.892;24.710;2022-11-15T00:21:41;24.25;;;17.15;;
44000;SDS011;29660;42.892;24.710;2022-11-15T00:27:01;24.17;;;17.33;;
44000;SDS011;29660;42.892;24.710;2022-11-15T00:32:25;20.20;;;15.18;;
44000;SDS011;29660;42.892;24.710;2022-11-15T00:37:45;17.90;;;14.00;;
44000;SDS011;29660;42.892;24.710;2022-11-15T00:43:07;25.25;;;18.15;;
44000;SDS011;29660;42.892;24.710;2022-11-15T00:48:27;25.10;;;17.52;;
44000;SDS011;29660;42.892;24.710;2022-11-15T00:53:48;20.85;;;16.00;;
44000;SDS011;29660;42.892;24.710;2022-11-15T00:59:08;24.27;;;17.83;;
44000;SDS011;29660;42.892;24.710;2022-11-15T01:04:29;23.92;;;17.15;;
44000;SDS011;29660;42.892;24.710;2022-11-15T01:09:49;25.52;;;17.73;;
44000;SDS011;29660;42.892;24.710;2022-11-15T01:15:09;23.77;;;17.88;;
44000;SDS011;29660;42.892;24.710;2022-11-15T01:20:30;23.63;;;17.30;;
44000;SDS011;29660;42.892;24.710;2022-11-15T01:25:50;25.45;;;17.30;;
44000;SDS011;29660;42.892;24.710;2022-11-15T01:31:12;25.52;;;16.10;;
44000;SDS011;29660;42.892;24.710;2022-11-15T01:36:38;23.73;;;16.77;;
44000;SDS011;29660;42.892;24.710;2022-11-15T01:41:58;22.30;;;15.60;;
44000;SDS011;29660;42.892;24.710;2022-11-15T01:47:28;23.08;;;16.02;;
44000;SDS011;29660;42.892;24.710;2022-11-15T01:52:53;23.52;;;15.23;;
44000;SDS011;29660;42.892;24.710;2022-11-15T01:58:14;23.95;;;16.52;;
44000;SDS011;29660;42.892;24.710;2022-11-15T02:03:46;19.20;;;14.05;;
44000;SDS011;29660;42.892;24.710;2022-11-15T02:09:11;17.50;;;13.60;;
44000;SDS011;29660;42.892;24.710;2022-11-15T02:14:33;19.85;;;14.43;;
44000;SDS011;29660;42.892;24.710;2022-11-15T02:42:40;14.32;;;11.70;;
44000;SDS011;29660;42.892;24.710;2022-11-15T02:48:27;19.45;;;13.65;;
44000;SDS011;29660;42.892;24.710;2022-11-15T02:53:48;18.73;;;13.60;;
44000;SDS011;29660;42.892;24.710;2022-11-15T03:04:44;13.13;;;11.05;;
44000;SDS011;29660;42.892;24.710;2022-11-15T03:10:20;13.50;;;10.50;;
44000;SDS011;29660;42.892;24.710;2022-11-15T03:15:50;11.13;;;9.77;;
44000;SDS011;29660;42.892;24.710;2022-11-15T03:21:23;12.35;;;9.48;;
44000;SDS011;29660;42.892;24.710;2022-11-15T03:26:45;13.13;;;9.93;;
44000;SDS011;29660;42.892;24.710;2022-11-15T03:32:12;13.18;;;9.30;;
44000;SDS011;29660;42.892;24.710;2022-11-15T03:37:50;11.10;;;9.10;;
44000;SDS011;29660;42.892;24.710;2022-11-15T03:48:54;12.00;;;9.43;;
44000;SDS011;29660;42.892;24.710;2022-11-15T03:54:24;12.25;;;9.57;;
44000;SDS011;29660;42.892;24.710;2022-11-15T03:59:44;12.23;;;9.75;;
44000;SDS011;29660;42.892;24.710;2022-11-15T04:05:05;17.10;;;13.20;;
44000;SDS011;29660;42.892;24.710;2022-11-15T04:10:25;12.73;;;10.82;;
44000;SDS011;29660;42.892;24.710;2022-11-15T04:15:46;14.10;;;10.25;;
44000;SDS011;29660;42.892;24.710;2022-11-15T04:21:07;12.35;;;9.38;;
44000;SDS011;29660;42.892;24.710;2022-11-15T04:26:47;12.32;;;9.15;;
44000;SDS011;29660;42.892;24.710;2022-11-15T04:32:07;12.05;;;9.45;;
44000;SDS011;29660;42.892;24.710;2022-11-15T04:37:28;22.48;;;16.52;;
44000;SDS011;29660;42.892;24.710;2022-11-15T04:42:48;18.25;;;13.95;;
44000;SDS011;29660;42.892;24.710;2022-11-15T04:48:08;12.98;;;10.52;;
44000;SDS011;29660;42.892;24.710;2022-11-15T04:53:28;13.07;;;10.15;;
44000;SDS011;29660;42.892;24.710;2022-11-15T04:58:49;14.80;;;11.27;;
44000;SDS011;29660;42.892;24.710;2022-11-15T05:04:10;14.40;;;11.55;;
44000;SDS011;29660;42.892;24.710;2022-11-15T05:14:59;12.55;;;11.23;;
44000;SDS011;29660;42.892;24.710;2022-11-15T05:20:20;16.65;;;13.50;;
44000;SDS011;29660;42.892;24.710;2022-11-15T05:25:40;15.60;;;13.25;;
44000;SDS011;29660;42.892;24.710;2022-11-15T05:31:04;15.63;;;11.13;;
44000;SDS011;29660;42.892;24.710;2022-11-15T05:41:50;12.70;;;10.05;;
44000;SDS011;29660;42.892;24.710;2022-11-15T05:47:19;18.95;;;13.57;;
44000;SDS011;29660;42.892;24.710;2022-11-15T05:52:42;12.65;;;11.23;;
44000;SDS011;29660;42.892;24.710;2022-11-15T05:58:05;16.15;;;12.50;;
44000;SDS011;29660;42.892;24.710;2022-11-15T06:03:25;13.50;;;11.70;;
44000;SDS011;29660;42.892;24.710;2022-11-15T06:08:46;16.77;;;13.75;;
44000;SDS011;29660;42.892;24.710;2022-11-15T06:14:07;32.33;;;21.48;;
44000;SDS011;29660;42.892;24.710;2022-11-15T06:19:28;28.75;;;23.83;;
44000;SDS011;29660;42.892;24.710;2022-11-15T06:24:53;17.70;;;15.60;;
44000;SDS011;29660;42.892;24.710;2022-11-15T06:30:13;22.30;;;16.08;;
44000;SDS011;29660;42.892;24.710;2022-11-15T06:35:34;15.77;;;12.50;;
44000;SDS011;29660;42.892;24.710;2022-11-15T06:41:00;24.10;;;19.65;;
44000;SDS011;29660;42.892;24.710;2022-11-15T06:46:25;22.63;;;17.70;;
44000;SDS011;29660;42.892;24.710;2022-11-15T06:51:45;25.63;;;18.60;;
44000;SDS011;29660;42.892;24.710;2022-11-15T06:57:06;18.15;;;15.38;;
44000;SDS011;29660;42.892;24.710;2022-11-15T07:02:26;22.48;;;18.65;;
44000;SDS011;29660;42.892;24.710;2022-11-15T07:07:53;23.67;;;19.50;;
44000;SDS011;29660;42.892;24.710;2022-11-15T07:13:15;14.43;;;10.77;;
44000;SDS011;29660;42.892;24.710;2022-11-15T07:18:36;25.38;;;17.50;;
44000;SDS011;29660;42.892;24.710;2022-11-15T07:23:59;23.38;;;16.95;;
44000;SDS011;29660;42.892;24.710;2022-11-15T07:29:20;8.75;;;7.22;;
44000;SDS011;29660;42.892;24.710;2022-11-15T07:34:40;9.55;;;7.82;;
44000;SDS011;29660;42.892;24.710;2022-11-15T07:40:01;9.98;;;7.78;;
44000;SDS011;29660;42.892;24.710;2022-11-15T07:45:22;10.07;;;8.75;;
44000;SDS011;29660;42.892;24.710;2022-11-15T07:50:46;12.98;;;10.77;;
44000;SDS011;29660;42.892;24.710;2022-11-15T07:56:06;12.10;;;9.00;;
44000;SDS011;29660;42.892;24.710;2022-11-15T08:01:27;14.45;;;10.43;;
44000;SDS011;29660;42.892;24.710;2022-11-15T08:06:48;12.43;;;9.98;;
44000;SDS011;29660;42.892;24.710;2022-11-15T08:12:09;16.05;;;12.52;;
44000;SDS011;29660;42.892;24.710;2022-11-15T08:17:29;16.50;;;13.27;;
44000;SDS011;29660;42.892;24.710;2022-11-15T08:22:52;13.82;;;11.27;;
44000;SDS011;29660;42.892;24.710;2022-11-15T08:28:12;13.10;;;11.70;;
44000;SDS011;29660;42.892;24.710;2022-11-15T08:33:32;16.17;;;11.80;;
44000;SDS011;29660;42.892;24.710;2022-11-15T08:38:53;13.98;;;10.68;;
44000;SDS011;29660;42.892;24.710;2022-11-15T08:44:14;12.40;;;10.50;;
44000;SDS011;29660;42.892;24.710;2022-11-15T08:49:34;13.75;;;10.75;;
44000;SDS011;29660;42.892;24.710;2022-11-15T08:54:55;15.93;;;10.35;;
44000;SDS011;29660;42.892;24.710;2022-11-15T09:00:15;14.88;;;11.95;;
44000;SDS011;29660;42.892;24.710;2022-11-15T09:05:36;13.93;;;11.82;;
44000;SDS011;29660;42.892;24.710;2022-11-15T09:10:57;25.48;;;19.00;;
44000;SDS011;29660;42.892;24.710;2022-11-15T09:16:18;22.80;;;16.67;;
44000;SDS011;29660;42.892;24.710;2022-11-15T09:21:39;17.42;;;13.82;;
44000;SDS011;29660;42.892;24.710;2022-11-15T09:27:00;16.50;;;12.93;;
44000;SDS011;29660;42.892;24.710;2022-11-15T09:32:38;16.17;;;13.05;;
44000;SDS011;29660;42.892;24.710;2022-11-15T09:37:59;14.68;;;12.75;;
44000;SDS011;29660;42.892;24.710;2022-11-15T09:49:11;13.52;;;11.38;;
44000;SDS011;29660;42.892;24.710;2022-11-15T09:54:36;14.18;;;12.68;;
44000;SDS011;29660;42.892;24.710;2022-11-15T10:05:46;12.30;;;9.35;;
44000;SDS011;29660;42.892;24.710;2022-11-15T10:10:52;15.15;;;11.10;;
44000;SDS011;29660;42.892;24.710;2022-11-15T10:21:37;9.32;;;7.90;;
44000;SDS011;29660;42.892;24.710;2022-11-15T10:26:50;11.85;;;9.55;;
44000;SDS011;29660;42.892;24.710;2022-11-15T10:31:52;15.38;;;11.75;;
44000;SDS011;29660;42.892;24.710;2022-11-15T10:36:55;14.68;;;10.55;;
44000;SDS011;29660;42.892;24.710;2022-11-15T10:42:14;12.88;;;9.80;;
44000;SDS011;29660;42.892;24.710;2022-11-15T10:47:28;19.40;;;13.85;;
44000;SDS011;29660;42.892;24.710;2022-11-15T10:52:38;15.10;;;10.63;;
44000;SDS011;29660;42.892;24.710;2022-11-15T10:57:52;15.10;;;11.05;;
44000;SDS011;29660;42.892;24.710;2022-11-15T11:13:23;23.00;;;19.15;;
44000;SDS011;29660;42.892;24.710;2022-11-15T11:18:31;14.50;;;11.75;;
44000;SDS011;29660;42.892;24.710;2022-11-15T11:23:48;17.05;;;11.25;;
44000;SDS011;29660;42.892;24.710;2022-11-15T11:40:50;16.55;;;11.95;;
44000;SDS011;29660;42.892;24.710;2022-11-15T11:51:23;17.35;;;10.77;;
44000;SDS011;29660;42.892;24.710;2022-11-15T11:56:34;16.35;;;13.68;;
44000;SDS011;29660;42.892;24.710;2022-11-15T12:01:43;15.30;;;11.88;;
44000;SDS011;29660;42.892;24.710;2022-11-15T12:17:29;8.88;;;7.63;;
44000;SDS011;29660;42.892;24.710;2022-11-15T12:33:28;22.93;;;13.13;;
44000;SDS011;29660;42.892;24.710;2022-11-15T12:39:01;27.75;;;13.77;;
44000;SDS011;29660;42.892;24.710;2022-11-15T12:44:10;24.42;;;12.93;;
44000;SDS011;29660;42.892;24.710;2022-11-15T13:04:55;12.02;;;8.80;;
44000;SDS011;29660;42.892;24.710;2022-11-15T13:20:36;13.18;;;9.68;;
44000;SDS011;29660;42.892;24.710;2022-11-15T13:36:22;18.35;;;15.23;;
44000;SDS011;29660;42.892;24.710;2022-11-15T13:41:27;17.05;;;13.18;;
44000;SDS011;29660;42.892;24.710;2022-11-15T13:46:31;11.68;;;10.45;;
44000;SDS011;29660;42.892;24.710;2022-11-15T13:56:53;14.70;;;11.52;;
44000;SDS011;29660;42.892;24.710;2022-11-15T14:02:03;12.50;;;11.00;;
44000;SDS011;29660;42.892;24.710;2022-11-15T14:07:31;15.57;;;12.93;;
44000;SDS011;29660;42.892;24.710;2022-11-15T14:12:34;24.33;;;18.52;;
44000;SDS011;29660;42.892;24.710;2022-11-15T14:17:37;22.48;;;18.27;;
44000;SDS011;29660;42.892;24.710;2022-11-15T14:22:39;21.20;;;17.10;;
44000;SDS011;29660;42.892;24.710;2022-11-15T14:38:22;25.55;;;17.75;;
44000;SDS011;29660;42.892;24.710;2022-11-15T14:43:26;29.30;;;20.40;;
44000;SDS011;29660;42.892;24.710;2022-11-15T14:48:27;22.65;;;18.40;;
44000;SDS011;29660;42.892;24.710;2022-11-15T14:53:30;21.80;;;15.23;;
44000;SDS011;29660;42.892;24.710;2022-11-15T14:58:32;22.60;;;18.63;;
44000;SDS011;29660;42.892;24.710;2022-11-15T15:03:34;34.25;;;27.35;;
44000;SDS011;29660;42.892;24.710;2022-11-15T15:08:36;27.90;;;20.20;;
44000;SDS011;29660;42.892;24.710;2022-11-15T15:13:38;25.13;;;19.45;;
44000;SDS011;29660;42.892;24.710;2022-11-15T15:18:40;34.08;;;23.65;;
44000;SDS011;29660;42.892;24.710;2022-11-15T15:23:42;30.08;;;24.98;;
44000;SDS011;29660;42.892;24.710;2022-11-15T15:28:44;65.75;;;37.90;;
44000;SDS011;29660;42.892;24.710;2022-11-15T15:33:46;25.27;;;19.30;;
44000;SDS011;29660;42.892;24.710;2022-11-15T15:38:48;45.78;;;33.15;;
44000;SDS011;29660;42.892;24.710;2022-11-15T15:43:50;35.97;;;23.75;;
44000;SDS011;29660;42.892;24.710;2022-11-15T15:48:53;28.73;;;23.38;;
44000;SDS011;29660;42.892;24.710;2022-11-15T15:53:55;70.07;;;51.35;;
44000;SDS011;29660;42.892;24.710;2022-11-15T15:58:59;33.45;;;26.55;;
44000;SDS011;29660;42.892;24.710;2022-11-15T16:04:01;18.85;;;16.85;;
44000;SDS011;29660;42.892;24.710;2022-11-15T16:09:03;53.25;;;41.17;;
44000;SDS011;29660;42.892;24.710;2022-11-15T16:14:15;30.05;;;24.17;;
44000;SDS011;29660;42.892;24.710;2022-11-15T16:19:17;33.78;;;27.75;;
44000;SDS011;29660;42.892;24.710;2022-11-15T16:24:19;53.92;;;37.42;;
44000;SDS011;29660;42.892;24.710;2022-11-15T16:29:22;34.88;;;27.70;;
44000;SDS011;29660;42.892;24.710;2022-11-15T16:34:24;57.60;;;49.90;;
44000;SDS011;29660;42.892;24.710;2022-11-15T16:39:30;52.15;;;42.47;;
44000;SDS011;29660;42.892;24.710;2022-11-15T16:44:32;145.93;;;120.50;;
44000;SDS011;29660;42.892;24.710;2022-11-15T16:49:34;77.88;;;65.85;;
44000;SDS011;29660;42.892;24.710;2022-11-15T16:54:36;53.08;;;43.42;;
44000;SDS011;29660;42.892;24.710;2022-11-15T16:59:38;48.72;;;41.10;;
44000;SDS011;29660;42.892;24.710;2022-11-15T17:04:41;52.25;;;43.45;;
44000;SDS011;29660;42.892;24.710;2022-11-15T17:09:43;50.97;;;40.10;;
44000;SDS011;29660;42.892;24.710;2022-11-15T17:14:45;100.05;;;68.93;;
44000;SDS011;29660;42.892;24.710;2022-11-15T17:19:47;351.42;;;219.45;;
44000;SDS011;29660;42.892;24.710;2022-11-15T17:24:49;201.18;;;137.80;;
44000;SDS011;29660;42.892;24.710;2022-11-15T17:29:51;116.03;;;89.45;;
44000;SDS011;29660;42.892;24.710;2022-11-15T17:34:54;118.32;;;95.32;;
44000;SDS011;29660;42.892;24.710;2022-11-15T17:39:56;191.27;;;142.52;;
44000;SDS011;29660;42.892;24.710;2022-11-15T17:44:58;94.15;;;62.75;;
44000;SDS011;29660;42.892;24.710;2022-11-15T17:50:03;70.60;;;48.90;;
44000;SDS011;29660;42.892;24.710;2022-11-15T17:55:05;209.48;;;119.65;;
44000;SDS011;29660;42.892;24.710;2022-11-15T18:00:08;155.02;;;93.00;;
44000;SDS011;29660;42.892;24.710;2022-11-15T18:05:10;46.60;;;35.67;;
44000;SDS011;29660;42.892;24.710;2022-11-15T18:10:12;55.28;;;45.63;;
44000;SDS011;29660;42.892;24.710;2022-11-15T18:15:14;60.20;;;48.80;;
44000;SDS011;29660;42.892;24.710;2022-11-15T18:20:16;57.92;;;47.03;;
44000;SDS011;29660;42.892;24.710;2022-11-15T18:25:18;69.82;;;49.55;;
44000;SDS011;29660;42.892;24.710;2022-11-15T18:30:20;71.80;;;55.72;;
44000;SDS011;29660;42.892;24.710;2022-11-15T18:35:23;59.95;;;46.10;;
44000;SDS011;29660;42.892;24.710;2022-11-15T18:40:25;68.47;;;50.25;;
44000;SDS011;29660;42.892;24.710;2022-11-15T18:45:27;80.47;;;61.58;;
44000;SDS011;29660;42.892;24.710;2022-11-15T18:50:28;168.48;;;118.03;;
44000;SDS011;29660;42.892;24.710;2022-11-15T18:55:30;108.72;;;80.68;;
44000;SDS011;29660;42.892;24.710;2022-11-15T19:00:32;103.13;;;81.25;;
44000;SDS011;29660;42.892;24.710;2022-11-15T19:05:34;98.10;;;76.55;;
44000;SDS011;29660;42.892;24.710;2022-11-15T19:10:36;84.05;;;67.35;;
44000;SDS011;29660;42.892;24.710;2022-11-15T19:15:38;84.30;;;65.85;;
44000;SDS011;29660;42.892;24.710;2022-11-15T19:20:40;79.68;;;61.53;;
44000;SDS011;29660;42.892;24.710;2022-11-15T19:25:42;79.30;;;57.65;;
44000;SDS011;29660;42.892;24.710;2022-11-15T19:30:44;68.35;;;48.25;;
44000;SDS011;29660;42.892;24.710;2022-11-15T19:35:46;81.75;;;55.58;;
44000;SDS011;29660;42.892;24.710;2022-11-15T19:40:48;89.32;;;60.13;;
44000;SDS011;29660;42.892;24.710;2022-11-15T19:45:53;78.63;;;54.35;;
44000;SDS011;29660;42.892;24.710;2022-11-15T19:51:04;96.68;;;67.10;;
44000;SDS011;29660;42.892;24.710;2022-11-15T20:06:30;63.83;;;42.92;;
44000;SDS011;29660;42.892;24.710;2022-11-15T20:11:34;83.18;;;60.30;;
44000;SDS011;29660;42.892;24.710;2022-11-15T20:16:38;73.05;;;50.55;;
44000;SDS011;29660;42.892;24.710;2022-11-15T20:21:41;82.88;;;60.00;;
44000;SDS011;29660;42.892;24.710;2022-11-15T20:26:44;104.70;;;77.18;;
44000;SDS011;29660;42.892;24.710;2022-11-15T20:31:47;124.65;;;88.60;;
44000;SDS011;29660;42.892;24.710;2022-11-15T20:36:49;89.28;;;61.95;;
44000;SDS011;29660;42.892;24.710;2022-11-15T20:41:51;86.63;;;64.03;;
44000;SDS011;29660;42.892;24.710;2022-11-15T20:46:53;94.68;;;68.07;;
44000;SDS011;29660;42.892;24.710;2022-11-15T20:51:54;89.68;;;63.38;;
44000;SDS011;29660;42.892;24.710;2022-11-15T20:56:57;158.30;;;99.47;;
44000;SDS011;29660;42.892;24.710;2022-11-15T21:01:59;123.40;;;84.97;;
44000;SDS011;29660;42.892;24.710;2022-11-15T21:07:01;87.10;;;55.03;;
44000;SDS011;29660;42.892;24.710;2022-11-15T21:12:03;73.13;;;44.45;;
44000;SDS011;29660;42.892;24.710;2022-11-15T21:17:14;68.63;;;42.53;;
44000;SDS011;29660;42.892;24.710;2022-11-15T21:22:16;142.45;;;54.92;;
44000;SDS011;29660;42.892;24.710;2022-11-15T21:27:18;91.80;;;50.53;;
44000;SDS011;29660;42.892;24.710;2022-11-15T21:32:21;83.03;;;50.90;;
44000;SDS011;29660;42.892;24.710;2022-11-15T21:37:23;99.20;;;46.53;;
44000;SDS011;29660;42.892;24.710;2022-11-15T21:42:25;111.50;;;52.72;;
44000;SDS011;29660;42.892;24.710;2022-11-15T21:47:27;154.27;;;52.38;;
44000;SDS011;29660;42.892;24.710;2022-11-15T21:52:29;150.82;;;60.05;;
44000;SDS011;29660;42.892;24.710;2022-11-15T21:57:31;115.82;;;57.47;;
44000;SDS011;29660;42.892;24.710;2022-11-15T22:02:33;104.03;;;51.80;;
44000;SDS011;29660;42.892;24.710;2022-11-15T22:07:35;111.05;;;53.65;;
44000;SDS011;29660;42.892;24.710;2022-11-15T22:12:37;89.53;;;46.88;;
44000;SDS011;29660;42.892;24.710;2022-11-15T22:17:39;94.45;;;47.50;;
44000;SDS011;29660;42.892;24.710;2022-11-15T22:22:59;89.00;;;52.95;;
44000;SDS011;29660;42.892;24.710;2022-11-15T22:28:02;87.75;;;50.60;;
44000;SDS011;29660;42.892;24.710;2022-11-15T22:33:04;81.53;;;45.25;;
44000;SDS011;29660;42.892;24.710;2022-11-15T22:38:06;87.97;;;45.92;;
44000;SDS011;29660;42.892;24.710;2022-11-15T22:43:10;79.20;;;44.45;;
44000;SDS011;29660;42.892;24.710;2022-11-15T22:48:14;109.88;;;52.22;;
44000;SDS011;29660;42.892;24.710;2022-11-15T22:53:17;114.75;;;38.40;;
44000;SDS011;29660;42.892;24.710;2022-11-15T22:58:20;122.72;;;41.08;;
44000;SDS011;29660;42.892;24.710;2022-11-15T23:03:23;86.60;;;44.22;;
44000;SDS011;29660;42.892;24.710;2022-11-15T23:08:26;89.43;;;45.40;;
44000;SDS011;29660;42.892;24.710;2022-11-15T23:13:28;159.32;;;45.28;;
44000;SDS011;29660;42.892;24.710;2022-11-15T23:18:33;162.35;;;46.90;;
44000;SDS011;29660;42.892;24.710;2022-11-15T23:23:36;120.47;;;43.42;;
44000;SDS011;29660;42.892;24.710;2022-11-15T23:28:38;165.85;;;45.40;;
44000;SDS011;29660;42.892;24.710;2022-11-15T23:33:40;140.43;;;49.50;;
44000;SDS011;29660;42.892;24.710;2022-11-15T23:38:58;189.43;;;44.38;;
44000;SDS011;29660;42.892;24.710;2022-11-15T23:44:00;288.27;;;43.15;;
44000;SDS011;29660;42.892;24.710;2022-11-15T23:49:02;201.30;;;45.78;;
44000;SDS011;29660;42.892;24.710;2022-11-15T23:54:05;246.00;;;43.25;;
44000;SDS011;29660;42.892;24.710;2022-11-15T23:59:07;169.85;;;41.38;;
